sensor_id;sensor_type;location;lat;lon;timestamp;temperature;humidity
32446;DHT22;18899;50.748;7.102;2023-06-10T00:01:32;19.90;99.90
32446;DHT22;18899;50.748;7.102;2023-06-10T00:04:02;19.90;99.90
32446;DHT22;18899;50.748;7.102;2023-06-10T00:06:27;19.80;99.90
32446;DHT22;18899;50.748;7.102;2023-06-10T00:08:53;19.80;99.90
32446;DHT22;18899;50.748;7.102;2023-06-10T00:11:20;19.90;99.90
32446;DHT22;18899;50.748;7.102;2023-06-10T00:13:46;19.80;99.90
32446;DHT22;18899;50.748;7.102;2023-06-10T00:16:12;19.80;99.90
32446;DHT22;18899;50.748;7.102;2023-06-10T00:18:38;19.80;99.90
32446;DHT22;18899;50.748;7.102;2023-06-10T00:21:04;19.80;99.90
32446;DHT22;18899;50.748;7.102;2023-06-10T00:23:31;19.70;99.90
32446;DHT22;18899;50.748;7.102;2023-06-10T00:25:58;19.60;99.90
32446;DHT22;18899;50.748;7.102;2023-06-10T00:28:24;19.60;99.90
32446;DHT22;18899;50.748;7.102;2023-06-10T00:30:50;19.50;99.90
32446;DHT22;18899;50.748;7.102;2023-06-10T00:33:16;19.60;99.90
32446;DHT22;18899;50.748;7.102;2023-06-10T00:35:42;19.60;99.90
32446;DHT22;18899;50.748;7.102;2023-06-10T00:38:07;19.70;99.90
32446;DHT22;18899;50.748;7.102;2023-06-10T00:40:38;19.80;99.90
32446;DHT22;18899;50.748;7.102;2023-06-10T00:43:04;20.00;99.90
32446;DHT22;18899;50.748;7.102;2023-06-10T00:45:29;20.00;99.90
32446;DHT22;18899;50.748;7.102;2023-06-10T00:47:55;20.00;99.90
32446;DHT22;18899;50.748;7.102;2023-06-10T00:50:21;19.90;99.90
32446;DHT22;18899;50.748;7.102;2023-06-10T00:52:47;19.90;99.90
32446;DHT22;18899;50.748;7.102;2023-06-10T00:55:15;19.90;99.90
32446;DHT22;18899;50.748;7.102;2023-06-10T00:57:42;20.00;99.90
32446;DHT22;18899;50.748;7.102;2023-06-10T01:00:10;19.90;99.90
32446;DHT22;18899;50.748;7.102;2023-06-10T01:02:36;19.80;99.90
32446;DHT22;18899;50.748;7.102;2023-06-10T01:05:02;19.70;99.90
32446;DHT22;18899;50.748;7.102;2023-06-10T01:10:22;19.70;99.90
32446;DHT22;18899;50.748;7.102;2023-06-10T01:12:58;19.50;99.90
32446;DHT22;18899;50.748;7.102;2023-06-10T01:15:24;19.60;99.90
32446;DHT22;18899;50.748;7.102;2023-06-10T01:18:04;19.50;99.90
32446;DHT22;18899;50.748;7.102;2023-06-10T01:20:33;19.50;99.90
32446;DHT22;18899;50.748;7.102;2023-06-10T01:22:59;19.40;99.90
32446;DHT22;18899;50.748;7.102;2023-06-10T01:25:26;19.40;99.90
32446;DHT22;18899;50.748;7.102;2023-06-10T01:28:17;19.50;99.90
32446;DHT22;18899;50.748;7.102;2023-06-10T01:30:55;19.50;99.90
32446;DHT22;18899;50.748;7.102;2023-06-10T01:33:27;19.40;99.90
32446;DHT22;18899;50.748;7.102;2023-06-10T01:35:53;19.30;99.90
32446;DHT22;18899;50.748;7.102;2023-06-10T01:38:21;19.30;99.90
32446;DHT22;18899;50.748;7.102;2023-06-10T01:40:49;19.20;99.90
32446;DHT22;18899;50.748;7.102;2023-06-10T01:43:14;19.20;99.90
32446;DHT22;18899;50.748;7.102;2023-06-10T01:45:40;19.30;99.90
32446;DHT22;18899;50.748;7.102;2023-06-10T01:48:06;19.30;99.90
32446;DHT22;18899;50.748;7.102;2023-06-10T01:50:31;19.20;99.90
32446;DHT22;18899;50.748;7.102;2023-06-10T01:52:59;19.20;99.90
32446;DHT22;18899;50.748;7.102;2023-06-10T01:55:24;19.00;99.90
32446;DHT22;18899;50.748;7.102;2023-06-10T01:57:50;19.00;99.90
32446;DHT22;18899;50.748;7.102;2023-06-10T02:00:17;18.90;99.90
32446;DHT22;18899;50.748;7.102;2023-06-10T02:02:42;18.90;99.90
32446;DHT22;18899;50.748;7.102;2023-06-10T02:05:08;18.80;99.90
32446;DHT22;18899;50.748;7.102;2023-06-10T02:07:34;18.80;99.90
32446;DHT22;18899;50.748;7.102;2023-06-10T02:09:59;18.70;99.90
32446;DHT22;18899;50.748;7.102;2023-06-10T02:12:25;18.80;99.90
32446;DHT22;18899;50.748;7.102;2023-06-10T02:14:51;18.80;99.90
32446;DHT22;18899;50.748;7.102;2023-06-10T02:17:16;18.70;99.90
32446;DHT22;18899;50.748;7.102;2023-06-10T02:19:42;18.70;99.90
32446;DHT22;18899;50.748;7.102;2023-06-10T02:22:08;18.60;99.90
32446;DHT22;18899;50.748;7.102;2023-06-10T02:24:36;18.70;99.90
32446;DHT22;18899;50.748;7.102;2023-06-10T02:27:04;18.70;99.90
32446;DHT22;18899;50.748;7.102;2023-06-10T02:29:33;18.70;99.90
32446;DHT22;18899;50.748;7.102;2023-06-10T02:31:58;18.70;99.90
32446;DHT22;18899;50.748;7.102;2023-06-10T02:34:24;18.70;99.90
32446;DHT22;18899;50.748;7.102;2023-06-10T02:36:49;18.70;99.90
32446;DHT22;18899;50.748;7.102;2023-06-10T02:39:16;18.60;99.90
32446;DHT22;18899;50.748;7.102;2023-06-10T02:41:42;18.50;99.90
32446;DHT22;18899;50.748;7.102;2023-06-10T02:44:07;18.40;99.90
32446;DHT22;18899;50.748;7.102;2023-06-10T02:46:33;18.40;99.90
32446;DHT22;18899;50.748;7.102;2023-06-10T02:48:58;18.30;99.90
32446;DHT22;18899;50.748;7.102;2023-06-10T02:51:24;18.10;99.90
32446;DHT22;18899;50.748;7.102;2023-06-10T02:53:50;18.00;99.90
32446;DHT22;18899;50.748;7.102;2023-06-10T02:56:16;17.90;99.90
32446;DHT22;18899;50.748;7.102;2023-06-10T02:58:42;17.90;99.90
32446;DHT22;18899;50.748;7.102;2023-06-10T03:01:08;17.90;99.90
32446;DHT22;18899;50.748;7.102;2023-06-10T03:03:35;17.80;99.90
32446;DHT22;18899;50.748;7.102;2023-06-10T03:06:02;17.80;99.90
32446;DHT22;18899;50.748;7.102;2023-06-10T03:08:28;17.90;99.90
32446;DHT22;18899;50.748;7.102;2023-06-10T03:10:54;17.80;99.90
32446;DHT22;18899;50.748;7.102;2023-06-10T03:13:19;17.70;99.90
32446;DHT22;18899;50.748;7.102;2023-06-10T03:15:46;17.70;99.90
32446;DHT22;18899;50.748;7.102;2023-06-10T03:18:12;17.60;99.90
32446;DHT22;18899;50.748;7.102;2023-06-10T03:20:37;17.70;99.90
32446;DHT22;18899;50.748;7.102;2023-06-10T03:23:05;17.60;99.90
32446;DHT22;18899;50.748;7.102;2023-06-10T03:25:32;17.60;99.90
32446;DHT22;18899;50.748;7.102;2023-06-10T03:27:57;17.60;99.90
32446;DHT22;18899;50.748;7.102;2023-06-10T03:30:23;17.50;99.90
32446;DHT22;18899;50.748;7.102;2023-06-10T03:32:48;17.40;99.90
32446;DHT22;18899;50.748;7.102;2023-06-10T03:35:14;17.50;99.90
32446;DHT22;18899;50.748;7.102;2023-06-10T03:37:40;17.40;99.90
32446;DHT22;18899;50.748;7.102;2023-06-10T03:40:07;17.20;99.90
32446;DHT22;18899;50.748;7.102;2023-06-10T03:42:34;17.20;99.90
32446;DHT22;18899;50.748;7.102;2023-06-10T03:45:00;17.10;99.90
32446;DHT22;18899;50.748;7.102;2023-06-10T03:47:26;17.10;99.90
32446;DHT22;18899;50.748;7.102;2023-06-10T03:49:51;17.20;99.90
32446;DHT22;18899;50.748;7.102;2023-06-10T03:52:18;17.30;99.90
32446;DHT22;18899;50.748;7.102;2023-06-10T03:54:43;17.30;99.90
32446;DHT22;18899;50.748;7.102;2023-06-10T03:57:09;17.20;99.90
32446;DHT22;18899;50.748;7.102;2023-06-10T03:59:35;17.30;99.90
32446;DHT22;18899;50.748;7.102;2023-06-10T04:02:00;17.30;99.90
32446;DHT22;18899;50.748;7.102;2023-06-10T04:04:26;17.40;99.90
32446;DHT22;18899;50.748;7.102;2023-06-10T04:06:52;17.50;99.90
32446;DHT22;18899;50.748;7.102;2023-06-10T04:09:18;17.60;99.90
32446;DHT22;18899;50.748;7.102;2023-06-10T04:11:44;17.60;99.90
32446;DHT22;18899;50.748;7.102;2023-06-10T04:14:09;17.70;99.90
32446;DHT22;18899;50.748;7.102;2023-06-10T04:16:35;17.80;99.90
32446;DHT22;18899;50.748;7.102;2023-06-10T04:19:00;17.90;99.90
32446;DHT22;18899;50.748;7.102;2023-06-10T04:21:27;17.80;99.90
32446;DHT22;18899;50.748;7.102;2023-06-10T04:23:53;18.00;99.90
32446;DHT22;18899;50.748;7.102;2023-06-10T04:26:18;18.00;99.90
32446;DHT22;18899;50.748;7.102;2023-06-10T04:28:44;18.20;99.90
32446;DHT22;18899;50.748;7.102;2023-06-10T04:31:09;18.50;99.90
32446;DHT22;18899;50.748;7.102;2023-06-10T04:33:35;19.00;99.90
32446;DHT22;18899;50.748;7.102;2023-06-10T04:36:01;19.40;99.90
32446;DHT22;18899;50.748;7.102;2023-06-10T04:38:27;19.80;99.90
32446;DHT22;18899;50.748;7.102;2023-06-10T04:40:52;20.00;99.90
32446;DHT22;18899;50.748;7.102;2023-06-10T04:43:18;20.20;99.90
32446;DHT22;18899;50.748;7.102;2023-06-10T04:45:43;20.10;99.90
32446;DHT22;18899;50.748;7.102;2023-06-10T04:48:10;19.90;99.90
32446;DHT22;18899;50.748;7.102;2023-06-10T04:50:36;19.60;99.90
32446;DHT22;18899;50.748;7.102;2023-06-10T04:53:02;19.40;99.90
32446;DHT22;18899;50.748;7.102;2023-06-10T04:55:27;19.30;99.90
32446;DHT22;18899;50.748;7.102;2023-06-10T04:57:53;19.20;99.90
32446;DHT22;18899;50.748;7.102;2023-06-10T05:00:18;19.20;99.90
32446;DHT22;18899;50.748;7.102;2023-06-10T05:02:44;19.20;99.90
32446;DHT22;18899;50.748;7.102;2023-06-10T05:05:10;19.30;99.90
32446;DHT22;18899;50.748;7.102;2023-06-10T05:07:36;19.30;99.90
32446;DHT22;18899;50.748;7.102;2023-06-10T05:10:02;19.30;99.90
32446;DHT22;18899;50.748;7.102;2023-06-10T05:12:28;19.40;99.90
32446;DHT22;18899;50.748;7.102;2023-06-10T05:14:53;19.50;99.90
32446;DHT22;18899;50.748;7.102;2023-06-10T05:17:19;19.80;99.90
32446;DHT22;18899;50.748;7.102;2023-06-10T05:19:44;20.50;99.90
32446;DHT22;18899;50.748;7.102;2023-06-10T05:22:10;21.00;99.90
32446;DHT22;18899;50.748;7.102;2023-06-10T05:24:36;21.30;99.90
32446;DHT22;18899;50.748;7.102;2023-06-10T05:27:01;22.00;99.90
32446;DHT22;18899;50.748;7.102;2023-06-10T05:29:28;22.80;99.90
32446;DHT22;18899;50.748;7.102;2023-06-10T05:31:53;23.20;99.90
32446;DHT22;18899;50.748;7.102;2023-06-10T05:34:21;23.70;99.90
32446;DHT22;18899;50.748;7.102;2023-06-10T05:36:47;24.00;99.90
32446;DHT22;18899;50.748;7.102;2023-06-10T05:39:12;24.70;99.90
32446;DHT22;18899;50.748;7.102;2023-06-10T05:41:38;25.50;99.50
32446;DHT22;18899;50.748;7.102;2023-06-10T05:44:04;25.50;97.60
32446;DHT22;18899;50.748;7.102;2023-06-10T05:46:29;25.30;97.10
32446;DHT22;18899;50.748;7.102;2023-06-10T05:48:55;24.60;98.90
32446;DHT22;18899;50.748;7.102;2023-06-10T05:51:21;23.70;99.90
32446;DHT22;18899;50.748;7.102;2023-06-10T05:53:46;23.30;99.90
32446;DHT22;18899;50.748;7.102;2023-06-10T05:56:13;23.30;99.90
32446;DHT22;18899;50.748;7.102;2023-06-10T05:58:39;22.80;99.90
32446;DHT22;18899;50.748;7.102;2023-06-10T06:01:04;22.40;99.90
32446;DHT22;18899;50.748;7.102;2023-06-10T06:03:30;22.20;99.90
32446;DHT22;18899;50.748;7.102;2023-06-10T06:05:55;22.10;99.90
32446;DHT22;18899;50.748;7.102;2023-06-10T06:08:21;21.90;99.90
32446;DHT22;18899;50.748;7.102;2023-06-10T06:10:47;22.00;99.90
32446;DHT22;18899;50.748;7.102;2023-06-10T06:13:13;22.00;99.90
32446;DHT22;18899;50.748;7.102;2023-06-10T06:15:38;22.40;99.90
32446;DHT22;18899;50.748;7.102;2023-06-10T06:18:04;23.20;99.90
32446;DHT22;18899;50.748;7.102;2023-06-10T06:20:30;24.20;99.90
32446;DHT22;18899;50.748;7.102;2023-06-10T06:22:55;25.10;99.90
32446;DHT22;18899;50.748;7.102;2023-06-10T06:25:21;26.10;94.70
32446;DHT22;18899;50.748;7.102;2023-06-10T06:27:46;26.90;84.50
32446;DHT22;18899;50.748;7.102;2023-06-10T06:30:12;27.60;81.60
32446;DHT22;18899;50.748;7.102;2023-06-10T06:32:37;27.80;78.00
32446;DHT22;18899;50.748;7.102;2023-06-10T06:35:03;27.90;74.90
32446;DHT22;18899;50.748;7.102;2023-06-10T06:37:31;29.10;66.90
32446;DHT22;18899;50.748;7.102;2023-06-10T06:39:57;30.30;63.50
32446;DHT22;18899;50.748;7.102;2023-06-10T06:42:23;30.40;63.90
32446;DHT22;18899;50.748;7.102;2023-06-10T06:44:49;30.00;63.70
32446;DHT22;18899;50.748;7.102;2023-06-10T06:47:14;30.10;63.70
32446;DHT22;18899;50.748;7.102;2023-06-10T06:49:40;30.40;63.70
32446;DHT22;18899;50.748;7.102;2023-06-10T06:52:06;30.50;60.20
32446;DHT22;18899;50.748;7.102;2023-06-10T06:54:31;31.00;60.00
32446;DHT22;18899;50.748;7.102;2023-06-10T06:56:57;31.10;59.80
32446;DHT22;18899;50.748;7.102;2023-06-10T06:59:23;30.60;58.20
32446;DHT22;18899;50.748;7.102;2023-06-10T07:01:49;30.70;57.20
32446;DHT22;18899;50.748;7.102;2023-06-10T07:04:15;30.70;58.20
32446;DHT22;18899;50.748;7.102;2023-06-10T07:06:41;30.90;59.40
32446;DHT22;18899;50.748;7.102;2023-06-10T07:09:09;31.20;57.50
32446;DHT22;18899;50.748;7.102;2023-06-10T07:11:35;31.40;57.50
32446;DHT22;18899;50.748;7.102;2023-06-10T07:14:01;31.30;56.60
32446;DHT22;18899;50.748;7.102;2023-06-10T07:16:26;31.40;55.40
32446;DHT22;18899;50.748;7.102;2023-06-10T07:18:53;31.20;57.40
32446;DHT22;18899;50.748;7.102;2023-06-10T07:21:19;31.40;56.80
32446;DHT22;18899;50.748;7.102;2023-06-10T07:23:45;31.70;55.70
32446;DHT22;18899;50.748;7.102;2023-06-10T07:26:11;32.00;55.60
32446;DHT22;18899;50.748;7.102;2023-06-10T07:28:41;32.40;55.40
32446;DHT22;18899;50.748;7.102;2023-06-10T07:31:07;32.60;54.50
32446;DHT22;18899;50.748;7.102;2023-06-10T07:33:33;32.70;54.00
32446;DHT22;18899;50.748;7.102;2023-06-10T07:35:59;32.40;53.40
32446;DHT22;18899;50.748;7.102;2023-06-10T07:38:25;33.40;50.90
32446;DHT22;18899;50.748;7.102;2023-06-10T07:40:51;33.90;53.10
32446;DHT22;18899;50.748;7.102;2023-06-10T07:43:16;33.70;53.30
32446;DHT22;18899;50.748;7.102;2023-06-10T07:45:43;33.60;52.60
32446;DHT22;18899;50.748;7.102;2023-06-10T07:48:09;33.70;50.90
32446;DHT22;18899;50.748;7.102;2023-06-10T07:50:34;34.30;51.30
32446;DHT22;18899;50.748;7.102;2023-06-10T07:53:01;34.60;49.90
32446;DHT22;18899;50.748;7.102;2023-06-10T07:55:26;34.70;50.90
32446;DHT22;18899;50.748;7.102;2023-06-10T07:57:52;34.20;49.50
32446;DHT22;18899;50.748;7.102;2023-06-10T08:00:18;33.40;51.40
32446;DHT22;18899;50.748;7.102;2023-06-10T08:02:44;33.40;51.00
32446;DHT22;18899;50.748;7.102;2023-06-10T08:05:09;33.80;49.30
32446;DHT22;18899;50.748;7.102;2023-06-10T08:07:35;34.00;50.20
32446;DHT22;18899;50.748;7.102;2023-06-10T08:10:01;35.10;48.90
32446;DHT22;18899;50.748;7.102;2023-06-10T08:12:27;35.70;47.80
32446;DHT22;18899;50.748;7.102;2023-06-10T08:14:52;35.20;47.40
32446;DHT22;18899;50.748;7.102;2023-06-10T08:17:19;34.90;49.10
32446;DHT22;18899;50.748;7.102;2023-06-10T08:19:44;34.60;49.70
32446;DHT22;18899;50.748;7.102;2023-06-10T08:22:10;34.00;51.50
32446;DHT22;18899;50.748;7.102;2023-06-10T08:24:36;33.80;49.20
32446;DHT22;18899;50.748;7.102;2023-06-10T08:27:01;34.10;50.10
32446;DHT22;18899;50.748;7.102;2023-06-10T08:29:27;34.50;52.00
32446;DHT22;18899;50.748;7.102;2023-06-10T08:31:52;34.40;48.70
32446;DHT22;18899;50.748;7.102;2023-06-10T08:34:18;34.60;50.00
32446;DHT22;18899;50.748;7.102;2023-06-10T08:36:44;35.50;47.00
32446;DHT22;18899;50.748;7.102;2023-06-10T08:39:10;35.90;47.40
32446;DHT22;18899;50.748;7.102;2023-06-10T08:41:42;36.00;47.70
32446;DHT22;18899;50.748;7.102;2023-06-10T08:44:13;35.60;46.60
32446;DHT22;18899;50.748;7.102;2023-06-10T08:46:45;35.10;48.30
32446;DHT22;18899;50.748;7.102;2023-06-10T08:49:12;35.00;47.50
32446;DHT22;18899;50.748;7.102;2023-06-10T08:51:41;35.20;49.00
32446;DHT22;18899;50.748;7.102;2023-06-10T08:54:18;35.10;49.70
32446;DHT22;18899;50.748;7.102;2023-06-10T08:56:49;34.90;49.30
32446;DHT22;18899;50.748;7.102;2023-06-10T08:59:16;34.60;51.50
32446;DHT22;18899;50.748;7.102;2023-06-10T09:01:43;34.60;49.80
32446;DHT22;18899;50.748;7.102;2023-06-10T09:04:09;34.90;50.00
32446;DHT22;18899;50.748;7.102;2023-06-10T09:06:35;35.60;49.70
32446;DHT22;18899;50.748;7.102;2023-06-10T09:09:02;34.80;50.50
32446;DHT22;18899;50.748;7.102;2023-06-10T09:11:28;34.20;49.90
32446;DHT22;18899;50.748;7.102;2023-06-10T09:13:54;34.60;51.10
32446;DHT22;18899;50.748;7.102;2023-06-10T09:16:19;34.80;49.80
32446;DHT22;18899;50.748;7.102;2023-06-10T09:18:45;34.90;49.60
32446;DHT22;18899;50.748;7.102;2023-06-10T09:21:10;35.50;48.20
32446;DHT22;18899;50.748;7.102;2023-06-10T09:23:37;35.60;48.50
32446;DHT22;18899;50.748;7.102;2023-06-10T09:26:08;35.80;50.70
32446;DHT22;18899;50.748;7.102;2023-06-10T09:28:34;36.10;48.90
32446;DHT22;18899;50.748;7.102;2023-06-10T09:31:06;37.80;46.30
32446;DHT22;18899;50.748;7.102;2023-06-10T09:33:38;38.50;44.00
32446;DHT22;18899;50.748;7.102;2023-06-10T09:36:06;38.80;44.50
32446;DHT22;18899;50.748;7.102;2023-06-10T09:38:34;38.60;44.10
32446;DHT22;18899;50.748;7.102;2023-06-10T09:41:00;38.60;44.90
32446;DHT22;18899;50.748;7.102;2023-06-10T09:43:46;38.30;44.90
32446;DHT22;18899;50.748;7.102;2023-06-10T09:46:18;38.20;46.80
32446;DHT22;18899;50.748;7.102;2023-06-10T09:48:45;39.10;45.00
32446;DHT22;18899;50.748;7.102;2023-06-10T09:51:12;39.50;42.80
32446;DHT22;18899;50.748;7.102;2023-06-10T09:53:38;38.80;43.10
32446;DHT22;18899;50.748;7.102;2023-06-10T09:56:04;38.10;43.00
32446;DHT22;18899;50.748;7.102;2023-06-10T09:58:39;37.80;43.50
32446;DHT22;18899;50.748;7.102;2023-06-10T10:01:09;37.60;47.70
32446;DHT22;18899;50.748;7.102;2023-06-10T10:03:45;37.50;47.60
32446;DHT22;18899;50.748;7.102;2023-06-10T10:06:12;37.30;44.00
32446;DHT22;18899;50.748;7.102;2023-06-10T10:08:38;38.10;45.30
32446;DHT22;18899;50.748;7.102;2023-06-10T10:11:03;38.30;43.80
32446;DHT22;18899;50.748;7.102;2023-06-10T10:13:32;38.10;45.60
32446;DHT22;18899;50.748;7.102;2023-06-10T10:16:01;38.70;43.20
32446;DHT22;18899;50.748;7.102;2023-06-10T10:18:29;38.60;42.60
32446;DHT22;18899;50.748;7.102;2023-06-10T10:20:57;38.50;43.60
32446;DHT22;18899;50.748;7.102;2023-06-10T10:23:31;38.00;44.00
32446;DHT22;18899;50.748;7.102;2023-06-10T10:26:00;37.80;44.10
32446;DHT22;18899;50.748;7.102;2023-06-10T10:28:36;37.30;46.60
32446;DHT22;18899;50.748;7.102;2023-06-10T10:31:08;36.80;46.70
32446;DHT22;18899;50.748;7.102;2023-06-10T10:33:45;36.60;45.50
32446;DHT22;18899;50.748;7.102;2023-06-10T10:36:15;37.00;47.30
32446;DHT22;18899;50.748;7.102;2023-06-10T10:38:41;37.20;44.00
32446;DHT22;18899;50.748;7.102;2023-06-10T10:41:08;37.50;42.30
32446;DHT22;18899;50.748;7.102;2023-06-10T10:43:35;37.80;41.60
32446;DHT22;18899;50.748;7.102;2023-06-10T10:46:02;37.30;43.60
32446;DHT22;18899;50.748;7.102;2023-06-10T10:48:37;37.60;42.80
32446;DHT22;18899;50.748;7.102;2023-06-10T10:51:03;37.50;44.00
32446;DHT22;18899;50.748;7.102;2023-06-10T10:53:30;36.60;45.40
32446;DHT22;18899;50.748;7.102;2023-06-10T10:56:13;35.30;46.40
32446;DHT22;18899;50.748;7.102;2023-06-10T10:58:39;33.70;49.40
32446;DHT22;18899;50.748;7.102;2023-06-10T11:01:14;33.10;49.20
32446;DHT22;18899;50.748;7.102;2023-06-10T11:03:44;32.10;51.90
32446;DHT22;18899;50.748;7.102;2023-06-10T11:06:14;31.60;52.20
32446;DHT22;18899;50.748;7.102;2023-06-10T11:11:24;31.20;56.30
32446;DHT22;18899;50.748;7.102;2023-06-10T11:16:39;31.10;53.30
32446;DHT22;18899;50.748;7.102;2023-06-10T11:19:05;30.90;56.00
32446;DHT22;18899;50.748;7.102;2023-06-10T11:21:31;30.70;55.40
32446;DHT22;18899;50.748;7.102;2023-06-10T11:23:58;30.60;58.40
32446;DHT22;18899;50.748;7.102;2023-06-10T11:31:50;30.90;55.40
32446;DHT22;18899;50.748;7.102;2023-06-10T11:34:22;31.00;52.20
32446;DHT22;18899;50.748;7.102;2023-06-10T11:36:52;31.20;52.10
32446;DHT22;18899;50.748;7.102;2023-06-10T11:39:20;31.20;54.30
32446;DHT22;18899;50.748;7.102;2023-06-10T11:41:46;31.00;53.20
32446;DHT22;18899;50.748;7.102;2023-06-10T11:44:14;30.80;51.60
32446;DHT22;18899;50.748;7.102;2023-06-10T11:46:41;30.80;51.20
32446;DHT22;18899;50.748;7.102;2023-06-10T11:49:09;30.80;50.20
32446;DHT22;18899;50.748;7.102;2023-06-10T11:51:37;30.70;52.50
32446;DHT22;18899;50.748;7.102;2023-06-10T11:54:03;30.70;49.30
32446;DHT22;18899;50.748;7.102;2023-06-10T11:56:30;30.80;50.90
32446;DHT22;18899;50.748;7.102;2023-06-10T12:01:37;30.90;50.70
32446;DHT22;18899;50.748;7.102;2023-06-10T12:04:09;31.00;46.40
32446;DHT22;18899;50.748;7.102;2023-06-10T12:06:54;30.70;50.90
32446;DHT22;18899;50.748;7.102;2023-06-10T12:09:24;30.60;49.80
32446;DHT22;18899;50.748;7.102;2023-06-10T12:12:04;30.60;49.80
32446;DHT22;18899;50.748;7.102;2023-06-10T12:17:15;30.40;48.70
32446;DHT22;18899;50.748;7.102;2023-06-10T12:19:40;30.30;53.00
32446;DHT22;18899;50.748;7.102;2023-06-10T12:22:06;29.90;50.00
32446;DHT22;18899;50.748;7.102;2023-06-10T12:24:32;29.70;47.20
32446;DHT22;18899;50.748;7.102;2023-06-10T12:26:57;29.40;49.00
32446;DHT22;18899;50.748;7.102;2023-06-10T12:29:24;29.40;49.50
32446;DHT22;18899;50.748;7.102;2023-06-10T12:32:00;29.50;50.40
32446;DHT22;18899;50.748;7.102;2023-06-10T12:34:33;29.50;50.20
32446;DHT22;18899;50.748;7.102;2023-06-10T12:37:00;29.70;48.10
32446;DHT22;18899;50.748;7.102;2023-06-10T12:39:26;29.70;51.30
32446;DHT22;18899;50.748;7.102;2023-06-10T12:41:52;29.80;49.30
32446;DHT22;18899;50.748;7.102;2023-06-10T12:44:18;29.80;50.10
32446;DHT22;18899;50.748;7.102;2023-06-10T12:46:44;29.90;50.50
32446;DHT22;18899;50.748;7.102;2023-06-10T12:49:19;30.00;50.20
32446;DHT22;18899;50.748;7.102;2023-06-10T12:51:45;30.10;50.20
32446;DHT22;18899;50.748;7.102;2023-06-10T12:54:11;30.00;49.00
32446;DHT22;18899;50.748;7.102;2023-06-10T12:56:38;30.00;48.60
32446;DHT22;18899;50.748;7.102;2023-06-10T12:59:03;29.90;49.70
32446;DHT22;18899;50.748;7.102;2023-06-10T13:01:29;29.90;49.50
32446;DHT22;18899;50.748;7.102;2023-06-10T13:03:56;29.90;47.80
32446;DHT22;18899;50.748;7.102;2023-06-10T13:06:22;30.00;49.70
32446;DHT22;18899;50.748;7.102;2023-06-10T13:08:47;29.90;51.80
32446;DHT22;18899;50.748;7.102;2023-06-10T13:11:13;29.80;49.20
32446;DHT22;18899;50.748;7.102;2023-06-10T13:13:39;29.80;49.00
32446;DHT22;18899;50.748;7.102;2023-06-10T13:16:05;29.90;49.10
32446;DHT22;18899;50.748;7.102;2023-06-10T13:18:30;30.10;49.60
32446;DHT22;18899;50.748;7.102;2023-06-10T13:21:05;30.10;49.60
32446;DHT22;18899;50.748;7.102;2023-06-10T13:23:31;30.10;50.50
32446;DHT22;18899;50.748;7.102;2023-06-10T13:25:57;29.90;50.50
32446;DHT22;18899;50.748;7.102;2023-06-10T13:28:22;29.70;50.30
32446;DHT22;18899;50.748;7.102;2023-06-10T13:30:48;29.40;51.20
32446;DHT22;18899;50.748;7.102;2023-06-10T13:33:14;29.20;50.80
32446;DHT22;18899;50.748;7.102;2023-06-10T13:35:39;29.20;52.60
32446;DHT22;18899;50.748;7.102;2023-06-10T13:38:05;29.30;53.00
32446;DHT22;18899;50.748;7.102;2023-06-10T13:40:32;29.30;50.90
32446;DHT22;18899;50.748;7.102;2023-06-10T13:42:58;29.40;50.20
32446;DHT22;18899;50.748;7.102;2023-06-10T13:45:23;29.30;50.40
32446;DHT22;18899;50.748;7.102;2023-06-10T13:47:50;29.40;49.70
32446;DHT22;18899;50.748;7.102;2023-06-10T13:50:15;29.40;51.10
32446;DHT22;18899;50.748;7.102;2023-06-10T13:52:41;29.50;50.80
32446;DHT22;18899;50.748;7.102;2023-06-10T13:55:07;29.60;48.70
32446;DHT22;18899;50.748;7.102;2023-06-10T13:57:33;29.60;51.10
32446;DHT22;18899;50.748;7.102;2023-06-10T13:59:58;29.60;51.50
32446;DHT22;18899;50.748;7.102;2023-06-10T14:02:24;29.60;50.30
32446;DHT22;18899;50.748;7.102;2023-06-10T14:04:49;29.60;49.50
32446;DHT22;18899;50.748;7.102;2023-06-10T14:07:15;29.50;49.40
32446;DHT22;18899;50.748;7.102;2023-06-10T14:09:40;29.30;50.70
32446;DHT22;18899;50.748;7.102;2023-06-10T14:12:06;29.00;50.80
32446;DHT22;18899;50.748;7.102;2023-06-10T14:14:32;28.90;48.90
32446;DHT22;18899;50.748;7.102;2023-06-10T14:16:58;29.10;49.20
32446;DHT22;18899;50.748;7.102;2023-06-10T14:19:24;29.20;51.20
32446;DHT22;18899;50.748;7.102;2023-06-10T14:21:50;29.30;51.40
32446;DHT22;18899;50.748;7.102;2023-06-10T14:24:15;29.40;50.90
32446;DHT22;18899;50.748;7.102;2023-06-10T14:26:41;29.50;51.30
32446;DHT22;18899;50.748;7.102;2023-06-10T14:29:06;29.60;52.60
32446;DHT22;18899;50.748;7.102;2023-06-10T14:31:34;29.60;50.00
32446;DHT22;18899;50.748;7.102;2023-06-10T14:33:59;29.50;50.50
32446;DHT22;18899;50.748;7.102;2023-06-10T14:36:25;29.50;49.90
32446;DHT22;18899;50.748;7.102;2023-06-10T14:38:50;29.30;50.70
32446;DHT22;18899;50.748;7.102;2023-06-10T14:41:16;29.20;51.00
32446;DHT22;18899;50.748;7.102;2023-06-10T14:43:42;29.00;50.90
32446;DHT22;18899;50.748;7.102;2023-06-10T14:46:07;28.90;50.00
32446;DHT22;18899;50.748;7.102;2023-06-10T14:48:33;28.70;50.60
32446;DHT22;18899;50.748;7.102;2023-06-10T14:50:58;28.60;50.30
32446;DHT22;18899;50.748;7.102;2023-06-10T14:53:24;28.70;50.00
32446;DHT22;18899;50.748;7.102;2023-06-10T14:55:50;28.70;47.70
32446;DHT22;18899;50.748;7.102;2023-06-10T14:58:15;28.50;48.00
32446;DHT22;18899;50.748;7.102;2023-06-10T15:00:41;28.50;48.20
32446;DHT22;18899;50.748;7.102;2023-06-10T15:03:06;28.60;48.60
32446;DHT22;18899;50.748;7.102;2023-06-10T15:05:32;28.60;48.30
32446;DHT22;18899;50.748;7.102;2023-06-10T15:07:59;28.60;49.80
32446;DHT22;18899;50.748;7.102;2023-06-10T15:10:25;28.70;47.70
32446;DHT22;18899;50.748;7.102;2023-06-10T15:12:52;28.80;47.30
32446;DHT22;18899;50.748;7.102;2023-06-10T15:15:22;28.90;48.20
32446;DHT22;18899;50.748;7.102;2023-06-10T15:17:47;28.90;48.40
32446;DHT22;18899;50.748;7.102;2023-06-10T15:20:13;29.00;48.60
32446;DHT22;18899;50.748;7.102;2023-06-10T15:22:38;28.90;50.60
32446;DHT22;18899;50.748;7.102;2023-06-10T15:25:04;28.90;49.50
32446;DHT22;18899;50.748;7.102;2023-06-10T15:27:30;28.90;49.40
32446;DHT22;18899;50.748;7.102;2023-06-10T15:29:55;28.90;50.30
32446;DHT22;18899;50.748;7.102;2023-06-10T15:32:21;28.80;48.30
32446;DHT22;18899;50.748;7.102;2023-06-10T15:34:46;28.80;49.70
32446;DHT22;18899;50.748;7.102;2023-06-10T15:37:14;28.80;46.90
32446;DHT22;18899;50.748;7.102;2023-06-10T15:39:39;28.90;47.00
32446;DHT22;18899;50.748;7.102;2023-06-10T15:42:06;28.90;46.50
32446;DHT22;18899;50.748;7.102;2023-06-10T15:44:31;28.90;49.70
32446;DHT22;18899;50.748;7.102;2023-06-10T15:46:57;28.90;50.10